Time;durP1;ratioP1;P1;durP2;ratioP2;P2;SDS_P1;SDS_P2;PMS_P1;PMS_P2;Temp;Humidity;BMP_temperature;BMP_pressure;BME280_temperature;BME280_humidity;BME280_pressure;Samples;Min_cycle;Max_cycle;Signal;HPM_P1;HPM_P2
2022/12/27 00:02:05;;;;;;;7.90;1.50;;;3.40;99.90;;;;;;5057778;28;20221;-94
2022/12/27 00:04:31;;;;;;;9.40;1.17;;;3.40;99.90;;;;;;5057797;28;20181;-95
2022/12/27 00:06:56;;;;;;;8.63;1.63;;;3.40;99.90;;;;;;5055484;28;20234;-93
2022/12/27 00:09:22;;;;;;;10.60;1.47;;;3.40;99.90;;;;;;5055969;28;20185;-95
2022/12/27 00:11:48;;;;;;;14.17;1.80;;;3.40;99.90;;;;;;5055905;28;20272;-91
2022/12/27 00:14:14;;;;;;;8.57;1.80;;;3.30;99.90;;;;;;5056094;28;20182;-96
2022/12/27 00:16:39;;;;;;;12.63;1.90;;;3.30;99.90;;;;;;5055317;28;20189;-90
2022/12/27 00:19:05;;;;;;;5.93;1.50;;;3.30;99.90;;;;;;5055691;28;20181;-96
2022/12/27 00:21:31;;;;;;;10.33;1.60;;;3.30;99.90;;;;;;5055815;28;20308;-93
2022/12/27 00:23:58;;;;;;;8.43;1.70;;;3.30;99.90;;;;;;5055423;28;20178;-92
2022/12/27 00:26:27;;;;;;;10.33;2.00;;;3.30;99.90;;;;;;5056154;28;20191;-93
2022/12/27 00:28:53;;;;;;;10.07;1.63;;;3.30;99.90;;;;;;5055960;28;20186;-91
2022/12/27 00:31:20;;;;;;;7.33;2.00;;;3.30;99.90;;;;;;5056018;28;20188;-89
2022/12/27 00:33:48;;;;;;;9.97;2.23;;;3.30;99.90;;;;;;5055942;28;20185;-92
2022/12/27 00:36:17;;;;;;;6.17;2.27;;;3.20;99.90;;;;;;5053323;22;20578;-92
2022/12/27 00:38:43;;;;;;;7.57;1.87;;;3.30;99.90;;;;;;5036985;28;20224;-88
2022/12/27 00:41:09;;;;;;;8.87;2.03;;;3.30;99.90;;;;;;5035694;28;20206;-92
2022/12/27 00:43:35;;;;;;;10.43;2.33;;;3.30;99.90;;;;;;5059860;23;20247;-94
2022/12/27 00:46:02;;;;;;;6.63;1.70;;;3.30;99.90;;;;;;5059923;28;20165;-96
2022/12/27 00:48:28;;;;;;;3.90;1.90;;;3.30;99.90;;;;;;5063736;28;20178;-93
2022/12/27 00:51:04;;;;;;;10.10;1.60;;;3.30;99.90;;;;;;5041549;28;20178;-96
2022/12/27 00:53:32;;;;;;;8.50;1.87;;;3.30;99.90;;;;;;5040584;28;20184;-94
2022/12/27 00:55:58;;;;;;;6.33;1.40;;;3.30;99.90;;;;;;5039297;28;20197;-93
2022/12/27 00:58:24;;;;;;;4.63;1.63;;;3.30;99.90;;;;;;5039347;28;20178;-88
2022/12/27 01:00:50;;;;;;;9.53;1.80;;;3.30;99.90;;;;;;5039861;28;20551;-92
2022/12/27 01:03:18;;;;;;;4.73;1.57;;;3.30;99.90;;;;;;5038448;28;20182;-93
2022/12/27 01:05:44;;;;;;;8.60;1.53;;;3.30;99.90;;;;;;5039276;28;20178;-96
2022/12/27 01:08:10;;;;;;;5.30;1.60;;;3.30;99.90;;;;;;5039691;28;20184;-94
2022/12/27 01:10:39;;;;;;;15.33;1.80;;;3.30;99.90;;;;;;5038077;28;20609;-93
2022/12/27 01:13:05;;;;;;;13.47;1.80;;;3.30;99.90;;;;;;5044535;28;20230;-92
2022/12/27 01:15:31;;;;;;;4.53;1.43;;;3.30;99.90;;;;;;5060244;28;20612;-96
2022/12/27 01:17:57;;;;;;;8.87;1.97;;;3.30;99.90;;;;;;5078408;28;20257;-90
2022/12/27 01:20:23;;;;;;;9.33;1.50;;;3.30;99.90;;;;;;5058815;28;20201;-91
2022/12/27 01:22:48;;;;;;;5.73;2.00;;;3.20;99.90;;;;;;5061167;28;20646;-96
2022/12/27 01:25:14;;;;;;;7.07;1.67;;;3.20;99.90;;;;;;5060610;28;20169;-93
2022/12/27 01:27:39;;;;;;;6.30;1.73;;;3.20;99.90;;;;;;5058285;28;20185;-96
2022/12/27 01:30:06;;;;;;;5.17;1.40;;;3.20;99.90;;;;;;5061144;28;20184;-91
2022/12/27 01:32:33;;;;;;;10.13;2.43;;;3.30;99.90;;;;;;5076567;28;20231;-91
2022/12/27 01:34:59;;;;;;;5.57;1.97;;;3.30;99.90;;;;;;5059765;28;20181;-93
2022/12/27 01:37:28;;;;;;;6.60;2.23;;;3.30;99.90;;;;;;5059373;28;20182;-96
2022/12/27 01:39:54;;;;;;;6.57;1.80;;;3.30;99.90;;;;;;5059088;28;20615;-93
2022/12/27 01:45:43;;;;;;;4.43;2.00;;;3.40;99.90;;;;;;5075383;28;20219;-90
2022/12/27 01:48:18;;;;;;;13.73;2.40;;;3.40;99.90;;;;;;5071547;28;20196;-90
2022/12/27 01:51:04;;;;;;;7.97;2.57;;;3.30;99.90;;;;;;5075976;28;20165;-96
2022/12/27 01:53:37;;;;;;;8.27;2.40;;;3.30;99.90;;;;;;5061010;28;20177;-89
2022/12/27 01:56:18;;;;;;;7.47;2.37;;;3.40;99.90;;;;;;5058323;28;20189;-93
2022/12/27 01:58:51;;;;;;;5.57;2.50;;;3.30;99.90;;;;;;5063698;28;20180;-94
2022/12/27 02:01:25;;;;;;;5.73;2.53;;;3.30;99.90;;;;;;5059523;28;20299;-96
2022/12/27 02:04:02;;;;;;;10.13;3.13;;;3.30;99.90;;;;;;5058766;28;20193;-96
2022/12/27 02:06:29;;;;;;;6.80;2.57;;;3.30;99.90;;;;;;5060483;28;20177;-90
2022/12/27 02:08:57;;;;;;;9.03;2.60;;;3.30;99.90;;;;;;5044150;28;20169;-88
2022/12/27 02:14:14;;;;;;;4.60;2.60;;;3.30;99.90;;;;;;5074985;28;20294;-93
2022/12/27 02:16:39;;;;;;;7.63;2.80;;;3.30;99.90;;;;;;5057270;28;20205;-93
2022/12/27 02:19:31;;;;;;;10.60;3.13;;;3.30;99.90;;;;;;5057743;28;20194;-94
2022/12/27 02:22:11;;;;;;;9.90;2.93;;;3.30;99.90;;;;;;5076112;28;20617;-95
2022/12/27 02:25:02;;;;;;;12.63;3.70;;;3.20;99.90;;;;;;5058176;28;20169;-94
2022/12/27 02:27:36;;;;;;;6.87;3.20;;;3.30;99.90;;;;;;5076483;28;20173;-92
2022/12/27 02:30:08;;;;;;;9.50;3.33;;;3.30;99.90;;;;;;5056963;28;20204;-96
2022/12/27 02:32:37;;;;;;;8.20;3.17;;;3.30;99.90;;;;;;5056587;28;20619;-86
2022/12/27 02:35:12;;;;;;;7.10;3.23;;;3.30;99.90;;;;;;5056518;28;20185;-89
2022/12/27 02:37:53;;;;;;;11.37;3.43;;;3.30;99.90;;;;;;5056574;28;20173;-92
2022/12/27 02:54:45;;;;;;;12.33;3.07;;;3.30;99.90;;;;;;5406107;22;20228;-86
2022/12/27 02:57:24;;;;;;;8.43;3.10;;;3.30;99.90;;;;;;5036622;28;20368;-95
2022/12/27 03:03:22;;;;;;;6.63;2.40;;;3.40;99.90;;;;;;5055423;28;20181;-85
2022/12/27 03:06:38;;;;;;;5.33;2.10;;;3.40;99.90;;;;;;5053483;28;20181;-87
2022/12/27 03:08:57;;;;;;;8.90;2.40;;;3.40;99.90;;;;;;5058925;28;20612;-94
2022/12/27 03:17:25;;;;;;;8.73;2.40;;;3.40;99.90;;;;;;5073965;28;20168;-95
2022/12/27 03:25:34;;;;;;;11.57;2.50;;;3.40;99.90;;;;;;5076393;28;20214;-86
2022/12/27 03:34:30;;;;;;;7.70;1.93;;;3.40;99.90;;;;;;5077380;28;20214;-94
2022/12/27 03:39:35;;;;;;;7.50;2.33;;;3.40;99.90;;;;;;5077660;28;20541;-93
2022/12/27 03:44:51;;;;;;;8.17;1.97;;;3.40;99.90;;;;;;5077804;28;20188;-90
2022/12/27 03:47:32;;;;;;;5.57;1.70;;;3.50;99.90;;;;;;5059422;28;20177;-84
2022/12/27 03:50:22;;;;;;;8.13;2.03;;;3.50;99.90;;;;;;5059861;28;20276;-90
2022/12/27 03:52:58;;;;;;;10.83;2.10;;;3.50;99.90;;;;;;5059118;28;20199;-88
2022/12/27 03:55:24;;;;;;;11.07;2.40;;;3.50;99.90;;;;;;5059694;28;20273;-92
2022/12/27 03:57:50;;;;;;;5.53;1.93;;;3.50;99.90;;;;;;5059676;28;20655;-89
2022/12/27 04:00:16;;;;;;;5.10;1.80;;;3.40;99.90;;;;;;5059537;28;20169;-88
2022/12/27 04:02:42;;;;;;;8.27;2.03;;;3.40;99.90;;;;;;5058675;28;20207;-86
2022/12/27 04:05:08;;;;;;;9.07;2.03;;;3.40;99.90;;;;;;5059083;28;20173;-93
2022/12/27 04:07:34;;;;;;;7.80;2.27;;;3.40;99.90;;;;;;5059405;28;20177;-90
2022/12/27 04:34:48;;;;;;;8.17;2.37;;;3.40;99.90;;;;;;5079016;28;20183;-96
2022/12/27 04:37:16;;;;;;;4.67;1.90;;;3.40;99.90;;;;;;5058196;28;20264;-91
2022/12/27 04:54:55;;;;;;;5.53;2.10;;;3.30;99.90;;;;;;5060231;28;20181;-94
2022/12/27 04:56:17;;;;;;;7.57;2.20;;;3.40;99.90;;;;;;5076437;28;20579;-89
2022/12/27 05:02:02;;;;;;;7.60;2.47;;;3.40;99.90;;;;;;5060010;28;20181;-87
2022/12/27 05:04:12;;;;;;;10.70;2.87;;;3.40;99.90;;;;;;5076089;28;20192;-90
2022/12/27 05:06:39;;;;;;;11.37;2.97;;;3.50;99.90;;;;;;5059844;28;20181;-88
2022/12/27 05:14:33;;;;;;;10.87;2.63;;;3.50;99.90;;;;;;5075914;28;20206;-89
2022/12/27 05:16:59;;;;;;;7.57;3.10;;;3.60;99.90;;;;;;5057488;28;20181;-93
2022/12/27 05:19:24;;;;;;;7.57;2.87;;;3.60;99.90;;;;;;5057485;28;20188;-88
2022/12/27 05:27:19;;;;;;;7.83;2.50;;;3.70;99.90;;;;;;5075434;28;20183;-93
2022/12/27 05:29:45;;;;;;;10.83;2.40;;;3.70;99.90;;;;;;5057425;28;20220;-94
2022/12/27 05:32:11;;;;;;;9.77;2.67;;;3.80;99.90;;;;;;5074764;28;20226;-83
2022/12/27 05:34:37;;;;;;;12.90;3.60;;;3.90;99.90;;;;;;5057491;28;20625;-89
2022/12/27 05:37:02;;;;;;;7.30;3.20;;;3.90;99.90;;;;;;5057968;28;20177;-85
2022/12/27 05:39:28;;;;;;;9.50;3.10;;;3.90;99.90;;;;;;5057080;28;20213;-90
2022/12/27 05:41:53;;;;;;;7.23;3.23;;;4.00;99.90;;;;;;5074943;28;20201;-92
2022/12/27 05:44:19;;;;;;;6.67;3.10;;;4.00;99.90;;;;;;5057048;28;20204;-88
2022/12/27 05:46:45;;;;;;;8.70;3.10;;;4.00;99.90;;;;;;5074839;28;20226;-93
2022/12/27 05:49:10;;;;;;;5.83;3.00;;;4.00;99.90;;;;;;5057669;28;20165;-88
2022/12/27 05:51:36;;;;;;;8.20;3.53;;;4.10;99.90;;;;;;5057157;28;20524;-83
2022/12/27 05:54:02;;;;;;;10.77;3.40;;;4.20;99.90;;;;;;5053382;28;20303;-89
2022/12/27 05:56:27;;;;;;;8.60;3.20;;;4.10;99.90;;;;;;5053039;28;20620;-86
2022/12/27 05:58:53;;;;;;;5.63;3.17;;;4.20;99.90;;;;;;5053641;28;20253;-90
2022/12/27 06:01:19;;;;;;;14.60;3.97;;;4.20;99.90;;;;;;5053545;28;20210;-90
2022/12/27 06:03:45;;;;;;;7.90;3.80;;;4.10;99.90;;;;;;5053213;28;20178;-90
2022/12/27 06:06:11;;;;;;;7.10;3.27;;;4.10;99.90;;;;;;5054097;28;20177;-89
2022/12/27 06:08:37;;;;;;;9.63;3.63;;;4.20;99.90;;;;;;5053973;28;20173;-86
2022/12/27 06:11:09;;;;;;;6.57;3.70;;;4.20;99.90;;;;;;5053936;28;20174;-96
2022/12/27 06:13:35;;;;;;;11.27;3.57;;;4.20;99.90;;;;;;5054632;28;20166;-91
2022/12/27 06:16:03;;;;;;;10.13;3.40;;;4.20;99.90;;;;;;5053471;28;20174;-92
2022/12/27 06:18:30;;;;;;;6.73;3.57;;;4.20;99.90;;;;;;5053623;28;20169;-94
2022/12/27 06:21:08;;;;;;;10.93;3.50;;;4.30;99.90;;;;;;5053307;28;20202;-87
2022/12/27 06:23:35;;;;;;;7.97;3.43;;;4.30;99.90;;;;;;5053182;28;20715;-86
2022/12/27 06:26:12;;;;;;;10.53;3.73;;;4.30;99.90;;;;;;5053219;28;20231;-87
2022/12/27 06:28:37;;;;;;;6.60;3.30;;;4.30;99.90;;;;;;5052922;28;20519;-89
2022/12/27 06:31:04;;;;;;;10.90;3.80;;;4.30;99.90;;;;;;5053533;28;20185;-91
2022/12/27 06:33:30;;;;;;;10.07;3.70;;;4.30;99.90;;;;;;5054734;28;20170;-90
2022/12/27 06:35:56;;;;;;;9.37;3.70;;;4.40;99.90;;;;;;5053254;28;20182;-86
2022/12/27 06:38:23;;;;;;;8.63;3.30;;;4.40;99.90;;;;;;5053260;28;20173;-91
2022/12/27 06:40:48;;;;;;;10.27;3.33;;;4.40;99.90;;;;;;5054061;28;20205;-92
2022/12/27 06:43:14;;;;;;;7.70;3.67;;;4.50;99.90;;;;;;5053097;28;20522;-94
2022/12/27 06:45:40;;;;;;;11.10;3.57;;;4.50;99.90;;;;;;5053541;28;20177;-88
2022/12/27 06:48:06;;;;;;;9.03;3.30;;;4.50;99.90;;;;;;5052717;28;20178;-90
2022/12/27 06:50:31;;;;;;;10.43;3.83;;;4.50;99.90;;;;;;5053270;28;20180;-93
2022/12/27 06:52:57;;;;;;;14.40;3.97;;;4.50;99.90;;;;;;5053165;28;20185;-89
2022/12/27 06:55:23;;;;;;;13.77;3.77;;;4.60;99.90;;;;;;5057052;28;20190;-89
2022/12/27 06:57:50;;;;;;;7.57;3.53;;;4.50;99.90;;;;;;5056831;28;20288;-91
2022/12/27 07:00:16;;;;;;;8.93;3.40;;;4.50;99.90;;;;;;5057063;28;20184;-91
2022/12/27 07:02:42;;;;;;;11.23;3.40;;;4.50;99.90;;;;;;5059966;28;20221;-86
2022/12/27 07:05:08;;;;;;;6.40;3.50;;;4.50;99.90;;;;;;5060434;28;20292;-87
2022/12/27 07:07:33;;;;;;;14.43;3.47;;;4.50;99.90;;;;;;5060101;28;20513;-88
2022/12/27 07:09:59;;;;;;;9.73;3.50;;;4.50;99.90;;;;;;5060277;28;20203;-95
2022/12/27 07:12:25;;;;;;;9.80;3.40;;;4.50;99.90;;;;;;5060015;28;20185;-89
2022/12/27 07:14:50;;;;;;;9.90;3.80;;;4.50;99.90;;;;;;5060626;28;20186;-94
2022/12/27 07:17:17;;;;;;;10.30;3.20;;;4.50;99.90;;;;;;5059895;28;20314;-89
2022/12/27 07:19:43;;;;;;;10.13;3.23;;;4.60;99.90;;;;;;5061150;28;20223;-88
2022/12/27 07:22:08;;;;;;;11.40;3.47;;;4.60;99.90;;;;;;5059635;28;20209;-89
2022/12/27 07:24:34;;;;;;;14.33;4.27;;;4.60;99.90;;;;;;5058460;28;20181;-92
2022/12/27 07:27:01;;;;;;;12.47;4.00;;;4.60;99.90;;;;;;5058474;28;20192;-86
2022/12/27 07:29:26;;;;;;;7.03;3.47;;;4.50;99.90;;;;;;5057664;28;20231;-91
2022/12/27 07:31:52;;;;;;;5.10;3.80;;;4.50;99.90;;;;;;5058924;28;20181;-93
2022/12/27 07:34:20;;;;;;;7.83;3.53;;;4.60;99.90;;;;;;5059105;28;20246;-94
2022/12/27 07:36:46;;;;;;;13.17;4.10;;;4.60;99.90;;;;;;5077252;28;20603;-94
2022/12/27 07:39:12;;;;;;;12.13;3.57;;;4.60;99.90;;;;;;5059552;28;20180;-95
2022/12/27 07:41:38;;;;;;;6.27;3.57;;;4.60;99.90;;;;;;5057996;28;20224;-94
2022/12/27 07:44:04;;;;;;;13.13;4.30;;;4.60;99.90;;;;;;5059402;28;20181;-92
2022/12/27 07:46:31;;;;;;;15.37;4.53;;;4.70;99.90;;;;;;5059411;28;20185;-94
2022/12/27 07:48:57;;;;;;;6.90;3.80;;;4.60;99.90;;;;;;5059534;28;20169;-94
2022/12/27 07:51:24;;;;;;;9.87;3.93;;;4.70;99.90;;;;;;5059531;28;20681;-95
2022/12/27 07:53:51;;;;;;;7.87;3.57;;;4.70;99.90;;;;;;5058014;28;20663;-94
2022/12/27 07:56:24;;;;;;;6.00;3.57;;;4.70;99.90;;;;;;5057684;28;20177;-86
2022/12/27 07:58:50;;;;;;;10.53;3.80;;;4.70;99.90;;;;;;5054271;28;20185;-90
2022/12/27 08:01:18;;;;;;;14.70;4.20;;;4.70;99.90;;;;;;5037668;28;20594;-93
2022/12/27 08:03:44;;;;;;;9.80;3.53;;;4.70;99.90;;;;;;5046783;28;20659;-89
2022/12/27 08:06:32;;;;;;;11.63;4.13;;;4.70;99.90;;;;;;5058619;28;20193;-88
2022/12/27 08:09:02;;;;;;;13.03;3.60;;;4.70;99.90;;;;;;5059721;28;20173;-90
2022/12/27 08:11:28;;;;;;;8.60;4.37;;;4.70;99.90;;;;;;5058403;28;20272;-90
2022/12/27 08:13:54;;;;;;;9.40;3.93;;;4.70;99.90;;;;;;5058344;28;20185;-93
2022/12/27 08:16:22;;;;;;;7.00;3.60;;;4.70;99.90;;;;;;5059144;28;20184;-96
2022/12/27 08:18:48;;;;;;;7.33;3.60;;;4.70;99.90;;;;;;5058745;28;20174;-95
2022/12/27 08:21:15;;;;;;;6.23;3.13;;;4.70;99.90;;;;;;5059859;28;20665;-95
2022/12/27 08:23:40;;;;;;;7.77;3.10;;;4.70;99.90;;;;;;5059547;28;20251;-91
2022/12/27 08:26:07;;;;;;;6.30;2.87;;;4.80;99.90;;;;;;5058905;28;20600;-91
2022/12/27 08:28:33;;;;;;;8.50;3.13;;;4.80;99.90;;;;;;5058987;28;20181;-92
2022/12/27 08:31:00;;;;;;;11.30;3.70;;;4.80;99.90;;;;;;5061656;28;20180;-93
2022/12/27 08:33:26;;;;;;;9.93;3.47;;;4.80;99.90;;;;;;5061167;28;20211;-88
2022/12/27 08:35:52;;;;;;;6.10;3.00;;;4.80;99.90;;;;;;5061217;28;20189;-96
2022/12/27 08:38:19;;;;;;;7.93;3.20;;;4.80;99.90;;;;;;5061978;28;20178;-96
2022/12/27 08:40:45;;;;;;;7.70;3.13;;;4.80;99.90;;;;;;5062395;28;20209;-95
2022/12/27 08:43:11;;;;;;;6.63;2.67;;;4.80;99.90;;;;;;5062453;28;20212;-89
2022/12/27 08:45:38;;;;;;;7.87;2.67;;;4.90;99.90;;;;;;5059147;28;20173;-93
2022/12/27 08:48:04;;;;;;;7.23;2.80;;;4.90;99.90;;;;;;5058344;28;20177;-91
2022/12/27 08:50:30;;;;;;;10.00;2.90;;;4.90;99.90;;;;;;5058801;28;20633;-87
2022/12/27 08:52:59;;;;;;;7.10;2.97;;;4.90;99.90;;;;;;5058366;28;20181;-96
2022/12/27 08:55:28;;;;;;;8.50;4.20;;;4.80;99.90;;;;;;5058628;28;20205;-95
2022/12/27 08:58:02;;;;;;;8.77;3.40;;;4.90;99.90;;;;;;5046586;28;20574;-96
2022/12/27 09:00:29;;;;;;;6.07;2.80;;;4.90;99.90;;;;;;5044598;28;20265;-94
2022/12/27 09:02:54;;;;;;;9.43;2.97;;;4.90;99.90;;;;;;5039897;28;20182;-88
2022/12/27 09:05:21;;;;;;;10.77;3.60;;;4.80;99.90;;;;;;5041728;28;20377;-94
2022/12/27 09:07:48;;;;;;;10.63;3.20;;;4.80;99.90;;;;;;5041200;28;20215;-85
2022/12/27 09:10:14;;;;;;;10.93;3.40;;;4.80;99.90;;;;;;5060310;23;20242;-93
2022/12/27 09:12:40;;;;;;;9.30;3.77;;;4.90;99.90;;;;;;5058126;28;20178;-95
2022/12/27 09:15:07;;;;;;;12.47;3.67;;;4.90;99.90;;;;;;5058658;28;20327;-96
2022/12/27 09:17:33;;;;;;;8.97;3.17;;;4.90;99.90;;;;;;5039944;22;20308;-93
2022/12/27 09:19:58;;;;;;;7.00;3.57;;;4.90;99.90;;;;;;4999122;28;20184;-93
2022/12/27 09:22:24;;;;;;;10.60;3.57;;;4.80;99.90;;;;;;4998526;28;20219;-95
2022/12/27 09:24:50;;;;;;;10.20;3.53;;;4.80;99.90;;;;;;4997550;28;20180;-95
2022/12/27 09:27:16;;;;;;;6.47;3.43;;;4.80;99.90;;;;;;4997952;28;20591;-96
2022/12/27 09:29:41;;;;;;;10.30;3.30;;;4.90;99.90;;;;;;4998702;28;20529;-96
2022/12/27 09:32:07;;;;;;;6.87;3.30;;;4.90;99.90;;;;;;4996287;28;20219;-95
2022/12/27 09:34:32;;;;;;;8.67;3.20;;;4.90;99.90;;;;;;4995115;28;20184;-91
2022/12/27 09:36:58;;;;;;;13.47;3.30;;;4.90;99.90;;;;;;4997602;28;20182;-93
2022/12/27 09:39:24;;;;;;;11.17;3.17;;;5.00;99.90;;;;;;4999266;28;20180;-94
2022/12/27 09:41:58;;;;;;;7.70;3.13;;;5.00;99.90;;;;;;4998300;28;20302;-96
2022/12/27 09:44:44;;;;;;;9.00;2.77;;;5.00;99.90;;;;;;4985829;28;20274;-96
2022/12/27 09:47:22;;;;;;;7.73;3.03;;;5.00;99.90;;;;;;4996066;28;20291;-95
2022/12/27 09:49:55;;;;;;;8.53;2.57;;;5.00;99.90;;;;;;4996040;28;20614;-96
2022/12/27 09:52:53;;;;;;;8.70;3.07;;;5.00;99.90;;;;;;4996114;28;20187;-96
2022/12/27 09:55:38;;;;;;;7.33;2.77;;;5.00;99.90;;;;;;4994688;28;20323;-96
2022/12/27 10:01:18;;;;;;;10.33;3.10;;;5.10;99.90;;;;;;4995536;28;20219;-90
2022/12/27 10:03:46;;;;;;;6.03;2.73;;;5.10;99.90;;;;;;5001179;28;20634;-91
2022/12/27 10:06:36;;;;;;;5.10;2.73;;;5.10;99.90;;;;;;4995999;28;20222;-95
2022/12/27 10:09:50;;;;;;;9.27;3.10;;;5.10;99.90;;;;;;4993515;28;20176;-96
2022/12/27 10:12:47;;;;;;;17.87;3.10;;;5.10;99.90;;;;;;4987950;28;20638;-96
2022/12/27 10:15:26;;;;;;;12.13;2.63;;;5.10;99.90;;;;;;4991010;28;20275;-91
2022/12/27 10:18:23;;;;;;;8.03;2.90;;;5.20;99.90;;;;;;4999226;28;20230;-89
2022/12/27 10:20:54;;;;;;;6.70;3.03;;;5.30;99.90;;;;;;4984523;28;20204;-94
2022/12/27 10:23:24;;;;;;;9.27;2.97;;;5.40;99.90;;;;;;5008322;28;20703;-94
2022/12/27 10:25:58;;;;;;;9.30;3.20;;;5.40;99.90;;;;;;4996370;28;20187;-88
2022/12/27 10:28:38;;;;;;;8.33;2.90;;;5.50;99.90;;;;;;5015256;28;20512;-94
2022/12/27 10:31:04;;;;;;;8.67;2.73;;;5.60;99.90;;;;;;4996173;28;20186;-86
2022/12/27 10:33:33;;;;;;;12.87;3.57;;;5.60;99.90;;;;;;4997417;28;20179;-92
2022/12/27 10:36:05;;;;;;;9.37;2.60;;;5.70;99.90;;;;;;4996738;28;20509;-90
2022/12/27 10:38:34;;;;;;;9.63;2.80;;;5.70;99.90;;;;;;4997131;28;20179;-94
2022/12/27 10:41:37;;;;;;;6.40;2.37;;;5.70;99.90;;;;;;4996380;28;20225;-87
2022/12/27 10:44:11;;;;;;;10.80;2.90;;;5.60;99.90;;;;;;4994395;28;20202;-90
2022/12/27 10:46:40;;;;;;;8.73;3.23;;;5.60;99.90;;;;;;4993818;28;20622;-92
2022/12/27 10:49:26;;;;;;;9.43;2.97;;;5.50;99.90;;;;;;4997160;28;20179;-91
2022/12/27 10:51:56;;;;;;;7.00;2.67;;;5.50;99.90;;;;;;5007368;28;20185;-88
2022/12/27 10:54:29;;;;;;;9.87;3.07;;;5.50;99.90;;;;;;5006793;28;20266;-91
2022/12/27 10:56:56;;;;;;;6.37;2.67;;;5.40;99.90;;;;;;4996780;28;20171;-88
2022/12/27 10:59:27;;;;;;;6.37;2.40;;;5.50;99.90;;;;;;4996501;28;20206;-89
2022/12/27 11:01:59;;;;;;;9.60;2.90;;;5.60;99.90;;;;;;4997137;28;20226;-90
2022/12/27 11:04:26;;;;;;;10.57;3.47;;;5.80;99.90;;;;;;4977719;28;20221;-89
2022/12/27 11:07:03;;;;;;;7.63;3.10;;;5.80;99.90;;;;;;4987302;28;20183;-90
2022/12/27 11:09:33;;;;;;;5.60;2.50;;;5.70;99.90;;;;;;4996535;28;20210;-90
2022/12/27 11:12:17;;;;;;;7.10;2.63;;;5.50;99.90;;;;;;4993663;28;20211;-88
2022/12/27 11:14:54;;;;;;;8.60;3.20;;;5.40;99.90;;;;;;5007003;28;20190;-92
2022/12/27 11:17:26;;;;;;;5.80;2.90;;;5.30;99.90;;;;;;4993467;28;20254;-86
2022/12/27 11:19:52;;;;;;;10.63;3.03;;;5.30;99.90;;;;;;4992405;28;20184;-88
2022/12/27 11:22:18;;;;;;;7.63;2.67;;;5.30;99.90;;;;;;4976995;28;20218;-88
2022/12/27 11:24:46;;;;;;;7.77;2.57;;;5.20;99.90;;;;;;4993680;28;20526;-86
2022/12/27 11:27:27;;;;;;;7.23;2.40;;;5.30;99.90;;;;;;4992467;28;20184;-87
2022/12/27 11:29:56;;;;;;;7.43;2.93;;;5.30;99.90;;;;;;4993382;28;20176;-87
2022/12/27 11:32:24;;;;;;;6.47;3.10;;;5.30;99.90;;;;;;4993444;28;20176;-88
2022/12/27 11:34:54;;;;;;;11.10;3.00;;;5.20;99.90;;;;;;4994504;28;20180;-90
2022/12/27 11:37:22;;;;;;;10.60;2.73;;;5.20;99.90;;;;;;5009059;28;20179;-90
2022/12/27 11:39:54;;;;;;;8.20;2.60;;;5.20;99.90;;;;;;4993792;28;20271;-87
2022/12/27 11:42:27;;;;;;;9.83;2.90;;;5.20;99.90;;;;;;4992342;28;20231;-88
2022/12/27 11:45:14;;;;;;;6.00;2.67;;;5.20;99.90;;;;;;4991890;28;20172;-88
2022/12/27 11:47:42;;;;;;;13.10;3.20;;;5.30;99.90;;;;;;4983429;28;20184;-91
2022/12/27 11:50:27;;;;;;;6.53;2.70;;;5.30;99.90;;;;;;4996778;28;20187;-92
2022/12/27 11:52:59;;;;;;;8.77;2.87;;;5.50;99.90;;;;;;4984159;28;20279;-87
2022/12/27 11:55:42;;;;;;;5.60;2.60;;;5.60;99.90;;;;;;4997696;28;20237;-94
2022/12/27 11:59:01;;;;;;;12.07;3.20;;;5.80;99.90;;;;;;5012582;28;20184;-88
2022/12/27 12:02:05;;;;;;;7.67;2.60;;;5.90;99.90;;;;;;4945057;28;20228;-88
2022/12/27 12:04:49;;;;;;;10.90;2.83;;;5.90;99.90;;;;;;4995973;28;20206;-89
2022/12/27 12:07:41;;;;;;;6.73;2.70;;;6.10;99.90;;;;;;4995954;28;21932;-90
2022/12/27 12:10:38;;;;;;;6.53;2.10;;;6.10;99.90;;;;;;4995141;28;20179;-87
2022/12/27 12:13:32;;;;;;;5.63;2.33;;;6.10;99.90;;;;;;4990793;28;20191;-89
2022/12/27 12:16:13;;;;;;;5.63;1.90;;;6.10;99.90;;;;;;4995914;28;20180;-89
2022/12/27 12:18:53;;;;;;;6.53;2.00;;;6.20;99.90;;;;;;4999448;28;20219;-89
2022/12/27 12:21:26;;;;;;;5.73;1.70;;;6.30;99.90;;;;;;5016010;28;20207;-87
2022/12/27 12:24:29;;;;;;;6.97;1.90;;;6.20;99.90;;;;;;5007572;28;20203;-88
2022/12/27 12:27:12;;;;;;;6.90;1.97;;;6.10;99.90;;;;;;5014882;28;20252;-89
2022/12/27 12:29:53;;;;;;;4.10;1.87;;;6.00;99.90;;;;;;4985416;28;20287;-91
2022/12/27 12:32:51;;;;;;;5.50;2.10;;;5.90;99.90;;;;;;4998874;28;20179;-88
2022/12/27 12:35:34;;;;;;;5.93;2.00;;;5.90;99.90;;;;;;4983601;28;20270;-89
2022/12/27 12:38:25;;;;;;;4.00;1.90;;;5.90;99.90;;;;;;5016493;28;20202;-87
2022/12/27 12:40:57;;;;;;;8.57;1.90;;;5.90;99.90;;;;;;4998756;28;20179;-87
2022/12/27 12:43:51;;;;;;;5.87;2.10;;;5.90;99.90;;;;;;4996489;28;20184;-92
2022/12/27 12:46:31;;;;;;;3.17;1.83;;;5.90;99.90;;;;;;4998674;28;20602;-88
2022/12/27 12:49:00;;;;;;;5.50;2.33;;;5.80;99.90;;;;;;5010294;28;20233;-85
2022/12/27 12:51:49;;;;;;;3.37;1.83;;;5.70;99.90;;;;;;4997897;28;20190;-91
2022/12/27 12:54:39;;;;;;;4.40;2.10;;;5.60;99.90;;;;;;4979577;28;20184;-86
2022/12/27 12:57:16;;;;;;;9.43;2.17;;;5.60;99.90;;;;;;4998605;28;20266;-87
2022/12/27 13:00:00;;;;;;;5.23;2.10;;;5.50;99.90;;;;;;4996438;28;20183;-87
2022/12/27 13:03:03;;;;;;;7.17;2.10;;;5.60;99.90;;;;;;5014885;28;20329;-84
2022/12/27 13:05:50;;;;;;;8.57;2.23;;;5.50;99.90;;;;;;4991690;28;20756;-89
2022/12/27 13:08:34;;;;;;;11.83;2.73;;;5.50;99.90;;;;;;4989242;28;20183;-88
2022/12/27 13:11:24;;;;;;;6.50;2.07;;;5.60;99.90;;;;;;4998182;28;20277;-86
2022/12/27 13:14:08;;;;;;;5.53;1.97;;;5.60;99.90;;;;;;4997656;28;20275;-89
2022/12/27 13:16:36;;;;;;;2.57;1.73;;;5.60;99.90;;;;;;5012405;28;20214;-90
2022/12/27 13:19:29;;;;;;;5.47;1.90;;;5.60;99.90;;;;;;5013339;28;20192;-86
2022/12/27 13:22:13;;;;;;;3.90;2.07;;;5.70;99.90;;;;;;4998317;28;20591;-85
2022/12/27 13:25:20;;;;;;;6.20;2.13;;;5.70;99.90;;;;;;4993838;28;20172;-83
2022/12/27 13:28:22;;;;;;;6.37;1.77;;;5.60;99.90;;;;;;4996147;28;20183;-87
2022/12/27 13:31:07;;;;;;;5.07;2.07;;;5.60;99.90;;;;;;5015531;28;20183;-86
2022/12/27 13:34:12;;;;;;;9.53;2.03;;;5.60;99.90;;;;;;5015200;28;20193;-89
2022/12/27 13:37:10;;;;;;;10.70;2.50;;;5.60;99.90;;;;;;4976576;28;20191;-91
2022/12/27 13:40:13;;;;;;;7.50;2.20;;;5.60;99.90;;;;;;4995775;28;20188;-88
2022/12/27 13:43:09;;;;;;;10.37;3.17;;;5.50;99.90;;;;;;4980955;28;20265;-91
2022/12/27 13:45:54;;;;;;;8.10;1.80;;;5.60;99.90;;;;;;5015466;28;20681;-92
2022/12/27 13:48:38;;;;;;;4.47;2.00;;;5.60;99.90;;;;;;4997431;28;20688;-90
2022/12/27 13:51:34;;;;;;;5.30;2.00;;;5.60;99.90;;;;;;5015271;28;20512;-89
2022/12/27 13:54:19;;;;;;;7.83;2.37;;;5.60;99.90;;;;;;4997128;28;20265;-89
2022/12/27 13:56:52;;;;;;;6.87;1.87;;;5.60;99.90;;;;;;4996755;28;20217;-85
2022/12/27 13:59:35;;;;;;;6.27;1.70;;;5.60;99.90;;;;;;4997689;28;20176;-92
2022/12/27 14:02:24;;;;;;;5.70;1.97;;;5.60;99.90;;;;;;4997081;28;20237;-84
2022/12/27 14:05:28;;;;;;;7.17;2.17;;;5.60;99.90;;;;;;4997556;28;20627;-86
2022/12/27 14:08:06;;;;;;;7.23;1.97;;;5.50;99.90;;;;;;4990670;28;20176;-87
2022/12/27 14:10:44;;;;;;;13.70;2.67;;;5.50;99.90;;;;;;5006024;28;20182;-88
2022/12/27 14:13:11;;;;;;;7.33;1.83;;;5.50;99.90;;;;;;5014532;28;20187;-89
2022/12/27 14:15:57;;;;;;;7.20;2.23;;;5.50;99.90;;;;;;4994344;28;20258;-89
2022/12/27 14:18:54;;;;;;;5.73;1.93;;;5.50;99.90;;;;;;5014331;28;20257;-85
2022/12/27 14:21:38;;;;;;;8.70;2.30;;;5.50;99.90;;;;;;5013112;28;20217;-87
2022/12/27 14:24:39;;;;;;;9.07;2.10;;;5.40;99.90;;;;;;4995913;28;20514;-90
2022/12/27 14:27:43;;;;;;;9.57;2.23;;;5.40;99.90;;;;;;4999113;28;20179;-87
2022/12/27 14:30:51;;;;;;;7.37;2.00;;;5.40;99.90;;;;;;4963577;28;20277;-86
2022/12/27 14:33:42;;;;;;;6.57;2.50;;;5.40;99.90;;;;;;4977162;28;20195;-90
2022/12/27 14:36:25;;;;;;;8.63;2.40;;;5.40;99.90;;;;;;4993020;28;20214;-88
2022/12/27 14:39:11;;;;;;;6.03;2.57;;;5.40;99.90;;;;;;4997632;28;20186;-90
2022/12/27 14:42:13;;;;;;;8.23;2.70;;;5.40;99.90;;;;;;4982935;28;20276;-90
2022/12/27 14:44:47;;;;;;;9.07;2.83;;;5.40;99.90;;;;;;4996748;28;20193;-89
2022/12/27 14:47:37;;;;;;;5.10;2.60;;;5.40;99.90;;;;;;5014550;28;20198;-89
2022/12/27 14:50:33;;;;;;;7.20;2.87;;;5.40;99.90;;;;;;5013646;28;20183;-89
2022/12/27 14:53:13;;;;;;;8.10;2.60;;;5.30;99.90;;;;;;4997302;28;20214;-88
2022/12/27 14:56:21;;;;;;;5.63;2.87;;;5.30;99.90;;;;;;4997776;28;20602;-92
2022/12/27 14:59:14;;;;;;;6.37;3.50;;;5.20;99.90;;;;;;4996877;28;20658;-92
2022/12/27 15:02:25;;;;;;;8.37;3.17;;;5.20;99.90;;;;;;5014323;28;20213;-89
2022/12/27 15:05:42;;;;;;;6.53;3.60;;;5.20;99.90;;;;;;4995354;28;20183;-88
2022/12/27 15:08:29;;;;;;;9.77;4.00;;;5.10;99.90;;;;;;4972605;28;20202;-88
2022/12/27 15:11:18;;;;;;;8.60;4.20;;;5.00;99.90;;;;;;5014468;28;20226;-92
2022/12/27 15:14:05;;;;;;;11.20;4.00;;;5.00;99.90;;;;;;4996455;28;20191;-90
2022/12/27 15:16:46;;;;;;;9.37;4.30;;;4.90;99.90;;;;;;4996632;28;20270;-92